sensor_id;sensor_type;location;lat;lon;timestamp;pressure;altitude;pressure_sealevel;temperature;humidity
54556;BME280;57291;37.520;15.106;2022-09-27T00:01:45;100516.50;;;21.22;82.00
54556;BME280;57291;37.520;15.106;2022-09-27T00:04:13;100512.09;;;21.17;81.90
54556;BME280;57291;37.520;15.106;2022-09-27T00:06:40;100517.06;;;21.08;82.19
54556;BME280;57291;37.520;15.106;2022-09-27T00:09:08;100511.41;;;20.97;82.54
54556;BME280;57291;37.520;15.106;2022-09-27T00:11:39;100508.88;;;20.89;83.26
54556;BME280;57291;37.520;15.106;2022-09-27T00:14:09;100497.72;;;20.81;83.46
54556;BME280;57291;37.520;15.106;2022-09-27T00:16:39;100496.13;;;20.80;84.04
54556;BME280;57291;37.520;15.106;2022-09-27T00:19:10;100498.47;;;20.78;84.37
54556;BME280;57291;37.520;15.106;2022-09-27T00:21:37;100495.22;;;20.73;84.64
54556;BME280;57291;37.520;15.106;2022-09-27T00:24:04;100490.84;;;20.72;84.52
54556;BME280;57291;37.520;15.106;2022-09-27T00:26:32;100493.56;;;20.68;84.82
54556;BME280;57291;37.520;15.106;2022-09-27T00:28:59;100499.03;;;20.65;84.78
54556;BME280;57291;37.520;15.106;2022-09-27T00:31:28;100501.34;;;20.63;84.77
54556;BME280;57291;37.520;15.106;2022-09-27T00:34:00;100505.78;;;20.67;83.95
54556;BME280;57291;37.520;15.106;2022-09-27T00:36:29;100492.78;;;20.68;83.57
54556;BME280;57291;37.520;15.106;2022-09-27T00:38:58;100495.97;;;20.70;82.97
54556;BME280;57291;37.520;15.106;2022-09-27T00:41:32;100491.28;;;20.74;81.66
54556;BME280;57291;37.520;15.106;2022-09-27T00:44:45;100474.03;;;20.80;80.61
54556;BME280;57291;37.520;15.106;2022-09-27T00:47:20;100471.81;;;20.90;79.22
54556;BME280;57291;37.520;15.106;2022-09-27T00:50:08;100468.63;;;20.88;79.79
54556;BME280;57291;37.520;15.106;2022-09-27T00:52:56;100453.28;;;20.90;79.03
54556;BME280;57291;37.520;15.106;2022-09-27T00:55:33;100443.47;;;20.93;78.69
54556;BME280;57291;37.520;15.106;2022-09-27T00:58:02;100435.91;;;20.90;78.76
54556;BME280;57291;37.520;15.106;2022-09-27T01:00:31;100441.84;;;20.92;78.70
54556;BME280;57291;37.520;15.106;2022-09-27T01:02:58;100440.25;;;20.91;78.63
54556;BME280;57291;37.520;15.106;2022-09-27T01:05:27;100444.94;;;20.87;78.88
54556;BME280;57291;37.520;15.106;2022-09-27T01:07:55;100439.38;;;20.83;78.81
54556;BME280;57291;37.520;15.106;2022-09-27T01:10:34;100443.22;;;20.78;78.91
54556;BME280;57291;37.520;15.106;2022-09-27T01:13:19;100428.13;;;20.72;78.57
54556;BME280;57291;37.520;15.106;2022-09-27T01:16:04;100429.25;;;20.68;78.60
54556;BME280;57291;37.520;15.106;2022-09-27T01:19:15;100423.69;;;20.64;78.75
54556;BME280;57291;37.520;15.106;2022-09-27T01:38:20;100437.00;;;20.35;81.83
54556;BME280;57291;37.520;15.106;2022-09-27T01:43:47;100425.22;;;20.38;80.89
54556;BME280;57291;37.520;15.106;2022-09-27T01:46:27;100427.53;;;20.36;81.07
54556;BME280;57291;37.520;15.106;2022-09-27T01:49:22;100427.53;;;20.36;81.06
54556;BME280;57291;37.520;15.106;2022-09-27T01:51:56;100421.22;;;20.36;80.80
54556;BME280;57291;37.520;15.106;2022-09-27T01:54:34;100414.16;;;20.38;80.27
54556;BME280;57291;37.520;15.106;2022-09-27T01:57:40;100407.84;;;20.38;80.03
54556;BME280;57291;37.520;15.106;2022-09-27T02:00:15;100418.53;;;20.39;80.15
54556;BME280;57291;37.520;15.106;2022-09-27T02:02:54;100406.69;;;20.39;79.95
54556;BME280;57291;37.520;15.106;2022-09-27T02:05:34;100399.59;;;20.38;79.90
54556;BME280;57291;37.520;15.106;2022-09-27T02:08:42;100393.22;;;20.34;80.47
54556;BME280;57291;37.520;15.106;2022-09-27T02:11:37;100391.97;;;20.31;80.28
54556;BME280;57291;37.520;15.106;2022-09-27T02:16:59;100387.41;;;20.43;79.06
54556;BME280;57291;37.520;15.106;2022-09-27T02:19:52;100399.34;;;20.47;78.96
54556;BME280;57291;37.520;15.106;2022-09-27T02:22:37;100398.47;;;20.43;78.95
54556;BME280;57291;37.520;15.106;2022-09-27T02:30:35;100419.75;;;20.42;78.86
54556;BME280;57291;37.520;15.106;2022-09-27T02:33:25;100425.31;;;20.46;78.44
54556;BME280;57291;37.520;15.106;2022-09-27T02:35:54;100418.72;;;20.50;78.05
54556;BME280;57291;37.520;15.106;2022-09-27T02:38:21;100413.63;;;20.52;78.05
54556;BME280;57291;37.520;15.106;2022-09-27T02:40:50;100411.25;;;20.51;78.17
54556;BME280;57291;37.520;15.106;2022-09-27T02:43:19;100412.38;;;20.50;78.03
54556;BME280;57291;37.520;15.106;2022-09-27T02:51:27;100399.38;;;20.50;77.71
54556;BME280;57291;37.520;15.106;2022-09-27T02:57:11;100403.81;;;20.55;77.23
54556;BME280;57291;37.520;15.106;2022-09-27T03:00:09;100398.28;;;20.55;77.19
54556;BME280;57291;37.520;15.106;2022-09-27T03:03:19;100395.81;;;20.50;77.73
54556;BME280;57291;37.520;15.106;2022-09-27T03:06:04;100388.22;;;20.43;77.84
54556;BME280;57291;37.520;15.106;2022-09-27T03:08:32;100396.44;;;20.39;77.98
54556;BME280;57291;37.520;15.106;2022-09-27T03:10:59;100391.31;;;20.38;78.13
54556;BME280;57291;37.520;15.106;2022-09-27T03:13:27;100387.00;;;20.41;77.83
54556;BME280;57291;37.520;15.106;2022-09-27T03:15:56;100383.06;;;20.42;77.53
54556;BME280;57291;37.520;15.106;2022-09-27T03:18:47;100382.63;;;20.39;77.49
54556;BME280;57291;37.520;15.106;2022-09-27T03:21:53;100385.84;;;20.42;77.45
54556;BME280;57291;37.520;15.106;2022-09-27T03:24:20;100395.28;;;20.41;77.58
54556;BME280;57291;37.520;15.106;2022-09-27T03:26:48;100399.25;;;20.43;76.92
54556;BME280;57291;37.520;15.106;2022-09-27T03:29:15;100398.91;;;20.45;76.63
54556;BME280;57291;37.520;15.106;2022-09-27T03:31:48;100397.72;;;20.46;76.46
54556;BME280;57291;37.520;15.106;2022-09-27T03:34:24;100395.69;;;20.43;76.81
54556;BME280;57291;37.520;15.106;2022-09-27T03:36:51;100395.59;;;20.35;77.47
54556;BME280;57291;37.520;15.106;2022-09-27T03:39:18;100394.75;;;20.31;77.90
54556;BME280;57291;37.520;15.106;2022-09-27T03:41:46;100396.75;;;20.34;77.81
54556;BME280;57291;37.520;15.106;2022-09-27T03:44:13;100386.97;;;20.37;77.93
54556;BME280;57291;37.520;15.106;2022-09-27T03:46:40;100379.09;;;20.39;77.66
54556;BME280;57291;37.520;15.106;2022-09-27T03:49:07;100385.00;;;20.37;77.64
54556;BME280;57291;37.520;15.106;2022-09-27T03:51:35;100388.53;;;20.38;77.74
54556;BME280;57291;37.520;15.106;2022-09-27T03:54:02;100385.28;;;20.32;77.93
54556;BME280;57291;37.520;15.106;2022-09-27T03:56:29;100383.25;;;20.29;78.24
54556;BME280;57291;37.520;15.106;2022-09-27T03:58:57;100384.88;;;20.30;78.17
54556;BME280;57291;37.520;15.106;2022-09-27T04:01:26;100388.72;;;20.26;78.27
54556;BME280;57291;37.520;15.106;2022-09-27T04:04:06;100385.91;;;20.22;78.87
54556;BME280;57291;37.520;15.106;2022-09-27T04:06:37;100387.81;;;20.18;79.24
54556;BME280;57291;37.520;15.106;2022-09-27T04:09:04;100377.53;;;20.15;79.74
54556;BME280;57291;37.520;15.106;2022-09-27T04:11:51;100379.44;;;20.11;79.94
54556;BME280;57291;37.520;15.106;2022-09-27T04:14:19;100379.78;;;20.09;80.21
54556;BME280;57291;37.520;15.106;2022-09-27T04:17:06;100378.56;;;20.07;80.48
54556;BME280;57291;37.520;15.106;2022-09-27T04:19:54;100378.56;;;20.07;80.16
54556;BME280;57291;37.520;15.106;2022-09-27T04:22:21;100375.38;;;20.05;80.32
54556;BME280;57291;37.520;15.106;2022-09-27T04:24:49;100372.56;;;20.01;80.69
54556;BME280;57291;37.520;15.106;2022-09-27T04:27:24;100381.91;;;19.97;80.74
54556;BME280;57291;37.520;15.106;2022-09-27T04:29:51;100376.72;;;19.91;81.17
54556;BME280;57291;37.520;15.106;2022-09-27T04:32:41;100371.09;;;19.84;81.24
54556;BME280;57291;37.520;15.106;2022-09-27T04:35:35;100370.19;;;19.80;81.40
54556;BME280;57291;37.520;15.106;2022-09-27T04:38:21;100368.25;;;19.81;80.81
54556;BME280;57291;37.520;15.106;2022-09-27T04:40:50;100364.28;;;19.78;81.20
54556;BME280;57291;37.520;15.106;2022-09-27T04:43:18;100365.47;;;19.81;81.23
54556;BME280;57291;37.520;15.106;2022-09-27T04:45:45;100371.38;;;19.79;81.00
54556;BME280;57291;37.520;15.106;2022-09-27T04:48:12;100378.06;;;19.78;81.11
54556;BME280;57291;37.520;15.106;2022-09-27T04:50:40;100370.53;;;19.75;81.56
54556;BME280;57291;37.520;15.106;2022-09-27T04:53:12;100374.41;;;19.74;81.88
54556;BME280;57291;37.520;15.106;2022-09-27T04:55:45;100369.28;;;19.73;82.16
54556;BME280;57291;37.520;15.106;2022-09-27T04:58:13;100381.56;;;19.75;81.71
54556;BME280;57291;37.520;15.106;2022-09-27T05:00:40;100368.13;;;19.74;81.85
54556;BME280;57291;37.520;15.106;2022-09-27T05:03:30;100374.41;;;19.74;82.07
54556;BME280;57291;37.520;15.106;2022-09-27T05:06:08;100377.75;;;19.83;81.84
54556;BME280;57291;37.520;15.106;2022-09-27T05:08:36;100383.66;;;20.05;80.78
54556;BME280;57291;37.520;15.106;2022-09-27T05:11:18;100394.31;;;20.29;78.83
54556;BME280;57291;37.520;15.106;2022-09-27T05:14:04;100387.84;;;20.45;78.58
54556;BME280;57291;37.520;15.106;2022-09-27T05:16:40;100395.28;;;20.41;78.06
54556;BME280;57291;37.520;15.106;2022-09-27T05:19:33;100401.09;;;20.35;78.29
54556;BME280;57291;37.520;15.106;2022-09-27T05:22:09;100406.59;;;20.81;76.83
54556;BME280;57291;37.520;15.106;2022-09-27T05:24:36;100395.25;;;21.47;74.62
54556;BME280;57291;37.520;15.106;2022-09-27T05:27:07;100390.06;;;22.16;70.36
54556;BME280;57291;37.520;15.106;2022-09-27T05:29:36;100379.59;;;22.43;69.62
54556;BME280;57291;37.520;15.106;2022-09-27T05:32:23;100382.03;;;23.14;67.65
54556;BME280;57291;37.520;15.106;2022-09-27T05:35:04;100392.06;;;23.44;64.96
54556;BME280;57291;37.520;15.106;2022-09-27T05:37:32;100390.94;;;22.86;66.06
54556;BME280;57291;37.520;15.106;2022-09-27T05:40:00;100397.16;;;22.17;68.59
54556;BME280;57291;37.520;15.106;2022-09-27T05:42:47;100396.09;;;21.54;70.79
54556;BME280;57291;37.520;15.106;2022-09-27T05:45:16;100409.09;;;21.20;72.58
54556;BME280;57291;37.520;15.106;2022-09-27T05:47:51;100409.66;;;21.03;73.04
54556;BME280;57291;37.520;15.106;2022-09-27T05:50:19;100406.41;;;20.97;73.37
54556;BME280;57291;37.520;15.106;2022-09-27T05:52:47;100407.03;;;20.83;73.71
54556;BME280;57291;37.520;15.106;2022-09-27T05:55:16;100402.97;;;20.77;74.02
54556;BME280;57291;37.520;15.106;2022-09-27T05:57:58;100399.38;;;20.73;74.23
54556;BME280;57291;37.520;15.106;2022-09-27T06:00:37;100399.03;;;20.78;74.08
54556;BME280;57291;37.520;15.106;2022-09-27T06:03:23;100409.28;;;21.04;73.05
54556;BME280;57291;37.520;15.106;2022-09-27T06:06:09;100412.75;;;21.58;71.02
54556;BME280;57291;37.520;15.106;2022-09-27T06:08:44;100408.22;;;22.62;66.44
54556;BME280;57291;37.520;15.106;2022-09-27T06:11:16;100404.44;;;23.68;62.25
54556;BME280;57291;37.520;15.106;2022-09-27T06:13:44;100403.75;;;24.53;59.48
54556;BME280;57291;37.520;15.106;2022-09-27T06:16:11;100402.09;;;25.02;57.31
54556;BME280;57291;37.520;15.106;2022-09-27T06:18:41;100413.19;;;25.24;56.48
54556;BME280;57291;37.520;15.106;2022-09-27T06:21:10;100411.72;;;25.79;54.98
54556;BME280;57291;37.520;15.106;2022-09-27T06:23:42;100408.69;;;26.18;53.95
54556;BME280;57291;37.520;15.106;2022-09-27T06:26:16;100417.34;;;25.68;54.54
54556;BME280;57291;37.520;15.106;2022-09-27T06:29:02;100418.44;;;24.65;57.49
54556;BME280;57291;37.520;15.106;2022-09-27T06:31:31;100416.41;;;23.97;60.20
54556;BME280;57291;37.520;15.106;2022-09-27T06:34:21;100417.81;;;23.52;61.24
54556;BME280;57291;37.520;15.106;2022-09-27T06:36:49;100412.19;;;23.23;62.17
54556;BME280;57291;37.520;15.106;2022-09-27T06:39:18;100418.00;;;23.00;62.94
54556;BME280;57291;37.520;15.106;2022-09-27T06:42:04;100425.31;;;22.71;64.22
54556;BME280;57291;37.520;15.106;2022-09-27T06:45:01;100425.56;;;22.55;64.51
54556;BME280;57291;37.520;15.106;2022-09-27T06:47:54;100427.13;;;23.08;64.37
54556;BME280;57291;37.520;15.106;2022-09-27T06:50:40;100424.00;;;24.43;58.45
54556;BME280;57291;37.520;15.106;2022-09-27T06:53:12;100429.34;;;25.50;55.28
54556;BME280;57291;37.520;15.106;2022-09-27T06:55:40;100435.41;;;26.08;53.40
54556;BME280;57291;37.520;15.106;2022-09-27T06:58:09;100438.88;;;26.27;53.10
54556;BME280;57291;37.520;15.106;2022-09-27T07:01:14;100435.25;;;25.67;53.94
54556;BME280;57291;37.520;15.106;2022-09-27T07:04:01;100438.84;;;25.64;54.83
54556;BME280;57291;37.520;15.106;2022-09-27T07:06:47;100454.09;;;26.11;53.22
54556;BME280;57291;37.520;15.106;2022-09-27T07:09:20;100447.63;;;26.77;51.76
54556;BME280;57291;37.520;15.106;2022-09-27T07:11:49;100438.53;;;27.07;50.95
54556;BME280;57291;37.520;15.106;2022-09-27T07:14:16;100441.47;;;26.97;50.81
54556;BME280;57291;37.520;15.106;2022-09-27T07:16:44;100428.03;;;26.84;51.31
54556;BME280;57291;37.520;15.106;2022-09-27T07:19:12;100429.13;;;26.94;50.39
54556;BME280;57291;37.520;15.106;2022-09-27T07:21:42;100443.19;;;26.83;51.55
54556;BME280;57291;37.520;15.106;2022-09-27T07:24:09;100447.31;;;27.09;51.00
54556;BME280;57291;37.520;15.106;2022-09-27T07:26:37;100443.72;;;27.09;51.27
54556;BME280;57291;37.520;15.106;2022-09-27T07:29:07;100446.31;;;26.89;51.71
54556;BME280;57291;37.520;15.106;2022-09-27T07:31:35;100441.09;;;26.46;53.00
54556;BME280;57291;37.520;15.106;2022-09-27T07:34:04;100443.41;;;26.03;54.63
54556;BME280;57291;37.520;15.106;2022-09-27T07:36:31;100443.03;;;26.01;55.03
54556;BME280;57291;37.520;15.106;2022-09-27T07:38:59;100438.41;;;26.32;54.82
54556;BME280;57291;37.520;15.106;2022-09-27T07:41:29;100455.47;;;25.82;55.88
54556;BME280;57291;37.520;15.106;2022-09-27T07:43:57;100466.25;;;25.62;56.47
54556;BME280;57291;37.520;15.106;2022-09-27T07:46:29;100468.31;;;25.50;57.14
54556;BME280;57291;37.520;15.106;2022-09-27T07:49:06;100474.16;;;25.81;56.69
54556;BME280;57291;37.520;15.106;2022-09-27T07:51:55;100483.81;;;26.29;55.74
54556;BME280;57291;37.520;15.106;2022-09-27T07:54:37;100482.69;;;26.15;56.29
54556;BME280;57291;37.520;15.106;2022-09-27T07:57:05;100478.13;;;25.84;56.68
54556;BME280;57291;37.520;15.106;2022-09-27T07:59:42;100471.44;;;25.67;57.07
54556;BME280;57291;37.520;15.106;2022-09-27T08:02:13;100468.31;;;25.50;56.96
54556;BME280;57291;37.520;15.106;2022-09-27T08:04:42;100484.06;;;25.79;57.39
54556;BME280;57291;37.520;15.106;2022-09-27T08:07:09;100493.59;;;25.88;56.92
54556;BME280;57291;37.520;15.106;2022-09-27T08:09:42;100482.00;;;26.01;56.01
54556;BME280;57291;37.520;15.106;2022-09-27T08:12:11;100491.09;;;26.12;55.27
54556;BME280;57291;37.520;15.106;2022-09-27T08:14:38;100487.53;;;26.08;55.56
54556;BME280;57291;37.520;15.106;2022-09-27T08:17:14;100489.50;;;26.11;56.60
54556;BME280;57291;37.520;15.106;2022-09-27T08:20:14;100473.47;;;26.26;55.72
54556;BME280;57291;37.520;15.106;2022-09-27T08:22:51;100468.72;;;26.26;54.99
54556;BME280;57291;37.520;15.106;2022-09-27T08:25:33;100450.25;;;26.47;54.77
54556;BME280;57291;37.520;15.106;2022-09-27T08:28:20;100448.66;;;26.94;54.08
54556;BME280;57291;37.520;15.106;2022-09-27T08:30:57;100452.78;;;27.20;52.85
54556;BME280;57291;37.520;15.106;2022-09-27T08:33:27;100457.38;;;27.00;53.37
54556;BME280;57291;37.520;15.106;2022-09-27T08:36:00;100456.31;;;26.34;53.70
54556;BME280;57291;37.520;15.106;2022-09-27T08:38:28;100463.19;;;26.19;53.97
54556;BME280;57291;37.520;15.106;2022-09-27T08:40:56;100467.69;;;25.99;54.53
54556;BME280;57291;37.520;15.106;2022-09-27T08:46:14;100457.59;;;26.19;54.35
54556;BME280;57291;37.520;15.106;2022-09-27T08:48:49;100469.41;;;26.41;54.45
54556;BME280;57291;37.520;15.106;2022-09-27T08:51:20;100457.81;;;26.50;53.47
54556;BME280;57291;37.520;15.106;2022-09-27T08:53:54;100455.78;;;26.54;53.26
54556;BME280;57291;37.520;15.106;2022-09-27T08:56:25;100461.19;;;26.75;52.46
54556;BME280;57291;37.520;15.106;2022-09-27T08:59:03;100458.81;;;26.74;52.75
54556;BME280;57291;37.520;15.106;2022-09-27T09:01:34;100463.56;;;26.77;53.84
54556;BME280;57291;37.520;15.106;2022-09-27T09:04:09;100471.53;;;26.75;54.05
54556;BME280;57291;37.520;15.106;2022-09-27T09:07:06;100470.81;;;27.08;53.88
54556;BME280;57291;37.520;15.106;2022-09-27T09:12:52;100498.03;;;26.41;54.63
54556;BME280;57291;37.520;15.106;2022-09-27T09:24:40;100452.94;;;27.40;51.20
54556;BME280;57291;37.520;15.106;2022-09-27T09:27:21;100458.91;;;27.73;50.88
54556;BME280;57291;37.520;15.106;2022-09-27T09:32:54;100464.56;;;28.54;49.15
54556;BME280;57291;37.520;15.106;2022-09-27T09:35:52;100457.88;;;28.48;48.22
54556;BME280;57291;37.520;15.106;2022-09-27T09:39:07;100455.78;;;28.52;48.54
54556;BME280;57291;37.520;15.106;2022-09-27T09:41:37;100440.00;;;28.65;47.70
54556;BME280;57291;37.520;15.106;2022-09-27T09:44:17;100448.56;;;28.55;48.01
54556;BME280;57291;37.520;15.106;2022-09-27T09:46:51;100458.53;;;28.56;48.15
54556;BME280;57291;37.520;15.106;2022-09-27T09:49:35;100448.25;;;28.49;48.25
54556;BME280;57291;37.520;15.106;2022-09-27T09:52:17;100445.63;;;28.38;46.22
54556;BME280;57291;37.520;15.106;2022-09-27T09:55:22;100449.84;;;28.23;46.07
54556;BME280;57291;37.520;15.106;2022-09-27T09:58:10;100452.34;;;28.17;46.69
54556;BME280;57291;37.520;15.106;2022-09-27T10:00:54;100458.41;;;28.39;47.15
54556;BME280;57291;37.520;15.106;2022-09-27T10:03:27;100466.13;;;28.55;47.71
54556;BME280;57291;37.520;15.106;2022-09-27T10:05:54;100459.41;;;28.76;47.59
54556;BME280;57291;37.520;15.106;2022-09-27T10:08:22;100455.38;;;28.77;47.23
54556;BME280;57291;37.520;15.106;2022-09-27T10:11:28;100464.59;;;28.97;47.21
54556;BME280;57291;37.520;15.106;2022-09-27T10:14:14;100463.38;;;28.98;47.97
54556;BME280;57291;37.520;15.106;2022-09-27T10:16:54;100456.75;;;28.89;48.13
54556;BME280;57291;37.520;15.106;2022-09-27T10:19:28;100457.38;;;28.77;48.76
54556;BME280;57291;37.520;15.106;2022-09-27T10:22:01;100455.97;;;28.88;48.79
54556;BME280;57291;37.520;15.106;2022-09-27T10:24:54;100449.22;;;28.86;48.72
54556;BME280;57291;37.520;15.106;2022-09-27T10:27:51;100441.06;;;28.95;48.72
54556;BME280;57291;37.520;15.106;2022-09-27T10:30:31;100443.44;;;28.96;48.32
54556;BME280;57291;37.520;15.106;2022-09-27T10:33:06;100443.56;;;28.89;48.70
54556;BME280;57291;37.520;15.106;2022-09-27T10:35:51;100442.81;;;29.09;48.16
54556;BME280;57291;37.520;15.106;2022-09-27T10:38:35;100442.97;;;29.02;47.64
54556;BME280;57291;37.520;15.106;2022-09-27T10:41:16;100431.81;;;28.98;47.61
54556;BME280;57291;37.520;15.106;2022-09-27T10:43:48;100430.78;;;29.12;47.31
54556;BME280;57291;37.520;15.106;2022-09-27T10:46:27;100419.06;;;28.97;47.13
54556;BME280;57291;37.520;15.106;2022-09-27T10:52:21;100435.56;;;28.68;46.97
54556;BME280;57291;37.520;15.106;2022-09-27T10:54:59;100419.81;;;28.78;46.70
54556;BME280;57291;37.520;15.106;2022-09-27T10:57:29;100418.88;;;28.84;46.45
54556;BME280;57291;37.520;15.106;2022-09-27T11:00:05;100421.81;;;29.01;45.88
54556;BME280;57291;37.520;15.106;2022-09-27T11:02:35;100424.38;;;29.11;45.91
54556;BME280;57291;37.520;15.106;2022-09-27T11:05:11;100426.19;;;29.41;45.03
54556;BME280;57291;37.520;15.106;2022-09-27T11:07:54;100415.91;;;29.35;43.76
54556;BME280;57291;37.520;15.106;2022-09-27T11:10:35;100409.13;;;29.36;44.29
54556;BME280;57291;37.520;15.106;2022-09-27T11:13:12;100405.50;;;29.75;43.56
54556;BME280;57291;37.520;15.106;2022-09-27T11:24:02;100404.47;;;29.09;44.17
54556;BME280;57291;37.520;15.106;2022-09-27T11:35:25;100388.47;;;28.66;43.73
54556;BME280;57291;37.520;15.106;2022-09-27T11:40:57;100381.28;;;28.65;43.33
54556;BME280;57291;37.520;15.106;2022-09-27T11:46:13;100395.84;;;28.57;42.97
54556;BME280;57291;37.520;15.106;2022-09-27T11:57:25;100380.22;;;29.59;41.17
54556;BME280;57291;37.520;15.106;2022-09-27T12:00:20;100383.06;;;29.39;40.46
54556;BME280;57291;37.520;15.106;2022-09-27T12:03:27;100375.13;;;29.54;40.16
54556;BME280;57291;37.520;15.106;2022-09-27T12:06:06;100365.41;;;29.42;39.55
54556;BME280;57291;37.520;15.106;2022-09-27T12:11:22;100371.91;;;29.55;39.56
54556;BME280;57291;37.520;15.106;2022-09-27T12:13:56;100360.38;;;29.33;38.97
54556;BME280;57291;37.520;15.106;2022-09-27T12:16:25;100354.66;;;29.20;40.01
54556;BME280;57291;37.520;15.106;2022-09-27T12:18:56;100333.38;;;29.07;39.09
54556;BME280;57291;37.520;15.106;2022-09-27T12:21:43;100335.00;;;28.84;39.43
54556;BME280;57291;37.520;15.106;2022-09-27T12:24:18;100344.09;;;28.88;39.10
54556;BME280;57291;37.520;15.106;2022-09-27T12:29:52;100332.47;;;29.30;37.65
54556;BME280;57291;37.520;15.106;2022-09-27T12:35:03;100332.03;;;29.67;36.40
54556;BME280;57291;37.520;15.106;2022-09-27T12:37:43;100340.75;;;29.53;36.01
54556;BME280;57291;37.520;15.106;2022-09-27T12:43:11;100329.44;;;29.40;35.74
54556;BME280;57291;37.520;15.106;2022-09-27T12:46:17;100329.63;;;29.13;36.05
54556;BME280;57291;37.520;15.106;2022-09-27T12:51:18;100335.56;;;29.35;35.30
54556;BME280;57291;37.520;15.106;2022-09-27T12:54:13;100335.44;;;29.59;35.34
54556;BME280;57291;37.520;15.106;2022-09-27T13:00:03;100338.13;;;29.46;34.73
54556;BME280;57291;37.520;15.106;2022-09-27T13:14:27;100344.19;;;29.61;34.24
54556;BME280;57291;37.520;15.106;2022-09-27T13:16:56;100356.28;;;29.74;34.14
54556;BME280;57291;37.520;15.106;2022-09-27T13:19:40;100343.78;;;29.79;33.37
54556;BME280;57291;37.520;15.106;2022-09-27T13:22:35;100356.38;;;29.87;33.50
54556;BME280;57291;37.520;15.106;2022-09-27T13:25:52;100345.03;;;29.58;33.14
54556;BME280;57291;37.520;15.106;2022-09-27T13:34:47;100325.38;;;29.61;34.09
54556;BME280;57291;37.520;15.106;2022-09-27T13:37:47;100323.59;;;29.51;34.32
54556;BME280;57291;37.520;15.106;2022-09-27T13:45:52;100327.41;;;29.61;33.14
54556;BME280;57291;37.520;15.106;2022-09-27T13:52:01;100345.91;;;29.75;33.30
54556;BME280;57291;37.520;15.106;2022-09-27T13:54:55;100333.47;;;29.76;32.95
54556;BME280;57291;37.520;15.106;2022-09-27T14:00:17;100338.97;;;29.79;34.06
54556;BME280;57291;37.520;15.106;2022-09-27T14:05:50;100335.22;;;30.19;34.19
54556;BME280;57291;37.520;15.106;2022-09-27T14:08:36;100336.25;;;30.41;33.68
54556;BME280;57291;37.520;15.106;2022-09-27T14:11:12;100360.59;;;29.95;46.54
54556;BME280;57291;37.520;15.106;2022-09-27T14:13:44;100349.97;;;29.34;50.82
54556;BME280;57291;37.520;15.106;2022-09-27T14:16:17;100351.13;;;28.77;52.66
54556;BME280;57291;37.520;15.106;2022-09-27T14:18:50;100345.72;;;28.66;52.87
54556;BME280;57291;37.520;15.106;2022-09-27T14:21:33;100356.38;;;28.27;52.65
54556;BME280;57291;37.520;15.106;2022-09-27T14:27:25;100364.50;;;27.37;53.95
54556;BME280;57291;37.520;15.106;2022-09-27T14:30:14;100361.50;;;26.86;57.65
54556;BME280;57291;37.520;15.106;2022-09-27T14:32:47;100370.31;;;26.81;59.10
54556;BME280;57291;37.520;15.106;2022-09-27T14:35:21;100365.16;;;26.80;59.84
54556;BME280;57291;37.520;15.106;2022-09-27T14:38:17;100370.16;;;26.58;61.73
54556;BME280;57291;37.520;15.106;2022-09-27T14:41:09;100354.28;;;26.55;61.85
54556;BME280;57291;37.520;15.106;2022-09-27T14:43:42;100357.00;;;26.58;60.82
54556;BME280;57291;37.520;15.106;2022-09-27T14:46:25;100366.16;;;26.62;61.02
54556;BME280;57291;37.520;15.106;2022-09-27T14:48:53;100362.50;;;26.69;61.79
54556;BME280;57291;37.520;15.106;2022-09-27T14:51:30;100363.84;;;26.54;61.65
54556;BME280;57291;37.520;15.106;2022-09-27T14:53:58;100384.72;;;26.31;62.72
54556;BME280;57291;37.520;15.106;2022-09-27T14:56:36;100378.97;;;26.04;63.73
54556;BME280;57291;37.520;15.106;2022-09-27T14:59:13;100392.66;;;25.81;65.61
54556;BME280;57291;37.520;15.106;2022-09-27T15:01:49;100395.16;;;25.57;66.55
54556;BME280;57291;37.520;15.106;2022-09-27T15:04:18;100406.28;;;25.50;68.98
54556;BME280;57291;37.520;15.106;2022-09-27T15:06:46;100400.78;;;25.39;68.25
54556;BME280;57291;37.520;15.106;2022-09-27T15:09:17;100404.34;;;25.43;66.90
54556;BME280;57291;37.520;15.106;2022-09-27T15:11:48;100389.69;;;25.32;68.72
54556;BME280;57291;37.520;15.106;2022-09-27T15:14:19;100392.91;;;25.20;69.60
54556;BME280;57291;37.520;15.106;2022-09-27T15:16:49;100411.19;;;25.21;69.15
54556;BME280;57291;37.520;15.106;2022-09-27T15:19:24;100400.06;;;25.21;68.11
54556;BME280;57291;37.520;15.106;2022-09-27T15:21:53;100399.66;;;25.22;68.25
54556;BME280;57291;37.520;15.106;2022-09-27T15:24:45;100391.31;;;25.22;67.88
54556;BME280;57291;37.520;15.106;2022-09-27T15:27:15;100393.34;;;25.15;68.34
54556;BME280;57291;37.520;15.106;2022-09-27T15:29:51;100394.94;;;25.01;67.40
54556;BME280;57291;37.520;15.106;2022-09-27T15:32:26;100405.66;;;24.99;67.92
54556;BME280;57291;37.520;15.106;2022-09-27T15:34:55;100410.44;;;24.99;67.56
54556;BME280;57291;37.520;15.106;2022-09-27T15:37:36;100402.91;;;24.92;68.04
54556;BME280;57291;37.520;15.106;2022-09-27T15:42:58;100402.09;;;25.02;66.87
54556;BME280;57291;37.520;15.106;2022-09-27T15:45:30;100401.28;;;25.02;66.95
54556;BME280;57291;37.520;15.106;2022-09-27T15:50:40;100414.00;;;24.96;67.26
54556;BME280;57291;37.520;15.106;2022-09-27T15:53:08;100412.03;;;24.89;68.81
54556;BME280;57291;37.520;15.106;2022-09-27T15:55:42;100409.69;;;24.73;69.33
54556;BME280;57291;37.520;15.106;2022-09-27T15:58:17;100406.50;;;24.64;69.89